sensor_id;sensor_type;location;lat;lon;timestamp;pressure;altitude;pressure_sealevel;temperature;humidity
22580;BME280;11456;47.030;15.396;2023-06-10T00:00:45;97162.84;;;17.70;100.00
22580;BME280;11456;47.030;15.396;2023-06-10T00:03:12;97153.00;;;17.62;100.00
22580;BME280;11456;47.030;15.396;2023-06-10T00:05:39;97158.03;;;17.66;100.00
22580;BME280;11456;47.030;15.396;2023-06-10T00:08:06;97152.34;;;17.74;100.00
22580;BME280;11456;47.030;15.396;2023-06-10T00:10:37;97152.78;;;17.71;100.00
22580;BME280;11456;47.030;15.396;2023-06-10T00:13:04;97156.16;;;17.73;100.00
22580;BME280;11456;47.030;15.396;2023-06-10T00:15:31;97155.06;;;17.74;100.00
22580;BME280;11456;47.030;15.396;2023-06-10T00:17:57;97155.91;;;17.74;100.00
22580;BME280;11456;47.030;15.396;2023-06-10T00:20:24;97158.44;;;17.76;100.00
22580;BME280;11456;47.030;15.396;2023-06-10T00:22:52;97143.97;;;17.69;100.00
22580;BME280;11456;47.030;15.396;2023-06-10T00:25:18;97150.28;;;17.62;100.00
22580;BME280;11456;47.030;15.396;2023-06-10T00:27:45;97147.13;;;17.66;100.00
22580;BME280;11456;47.030;15.396;2023-06-10T00:30:12;97148.38;;;17.70;100.00
22580;BME280;11456;47.030;15.396;2023-06-10T00:32:38;97156.09;;;17.46;100.00
22580;BME280;11456;47.030;15.396;2023-06-10T00:35:05;97151.47;;;17.27;100.00
22580;BME280;11456;47.030;15.396;2023-06-10T00:37:33;97148.75;;;17.27;100.00
22580;BME280;11456;47.030;15.396;2023-06-10T00:40:04;97144.56;;;17.31;100.00
22580;BME280;11456;47.030;15.396;2023-06-10T00:42:31;97151.66;;;17.19;100.00
22580;BME280;11456;47.030;15.396;2023-06-10T00:44:58;97146.63;;;17.29;100.00
22580;BME280;11456;47.030;15.396;2023-06-10T00:47:25;97149.59;;;17.34;100.00
22580;BME280;11456;47.030;15.396;2023-06-10T00:49:51;97144.97;;;17.28;100.00
22580;BME280;11456;47.030;15.396;2023-06-10T00:52:18;97143.06;;;17.22;100.00
22580;BME280;11456;47.030;15.396;2023-06-10T00:54:46;97143.69;;;17.24;100.00
22580;BME280;11456;47.030;15.396;2023-06-10T00:57:14;97141.19;;;17.29;100.00
22580;BME280;11456;47.030;15.396;2023-06-10T00:59:41;97146.03;;;17.27;100.00
22580;BME280;11456;47.030;15.396;2023-06-10T01:02:08;97137.22;;;17.25;100.00
22580;BME280;11456;47.030;15.396;2023-06-10T01:04:35;97139.28;;;17.23;100.00
22580;BME280;11456;47.030;15.396;2023-06-10T01:07:12;97134.06;;;17.15;100.00
22580;BME280;11456;47.030;15.396;2023-06-10T01:15:16;97131.72;;;16.99;100.00
22580;BME280;11456;47.030;15.396;2023-06-10T01:20:20;97126.91;;;17.01;100.00
22580;BME280;11456;47.030;15.396;2023-06-10T01:22:46;97137.34;;;16.91;100.00
22580;BME280;11456;47.030;15.396;2023-06-10T01:25:14;97147.00;;;17.00;100.00
22580;BME280;11456;47.030;15.396;2023-06-10T01:27:42;97149.53;;;17.08;100.00
22580;BME280;11456;47.030;15.396;2023-06-10T01:30:15;97145.78;;;17.09;100.00
22580;BME280;11456;47.030;15.396;2023-06-10T01:32:45;97150.34;;;17.02;100.00
22580;BME280;11456;47.030;15.396;2023-06-10T01:35:14;97154.94;;;16.95;100.00
22580;BME280;11456;47.030;15.396;2023-06-10T01:37:42;97156.19;;;16.99;100.00
22580;BME280;11456;47.030;15.396;2023-06-10T01:40:09;97153.25;;;16.94;100.00
22580;BME280;11456;47.030;15.396;2023-06-10T01:42:37;97151.56;;;16.93;100.00
22580;BME280;11456;47.030;15.396;2023-06-10T01:45:04;97158.81;;;16.72;100.00
22580;BME280;11456;47.030;15.396;2023-06-10T01:47:30;97155.22;;;16.65;100.00
22580;BME280;11456;47.030;15.396;2023-06-10T01:49:58;97162.81;;;16.76;100.00
22580;BME280;11456;47.030;15.396;2023-06-10T01:52:26;97161.59;;;16.86;100.00
22580;BME280;11456;47.030;15.396;2023-06-10T01:54:53;97148.81;;;16.79;100.00
22580;BME280;11456;47.030;15.396;2023-06-10T01:57:19;97156.09;;;16.72;100.00
22580;BME280;11456;47.030;15.396;2023-06-10T01:59:46;97149.03;;;16.84;100.00
22580;BME280;11456;47.030;15.396;2023-06-10T02:02:13;97151.53;;;16.79;100.00
22580;BME280;11456;47.030;15.396;2023-06-10T02:04:40;97148.16;;;16.77;100.00
22580;BME280;11456;47.030;15.396;2023-06-10T02:07:07;97151.91;;;16.63;100.00
22580;BME280;11456;47.030;15.396;2023-06-10T02:09:33;97155.66;;;16.62;100.00
22580;BME280;11456;47.030;15.396;2023-06-10T02:12:04;97152.75;;;16.70;100.00
22580;BME280;11456;47.030;15.396;2023-06-10T02:14:33;97149.91;;;16.92;100.00
22580;BME280;11456;47.030;15.396;2023-06-10T02:16:59;97152.38;;;16.80;100.00
22580;BME280;11456;47.030;15.396;2023-06-10T02:19:27;97156.94;;;16.73;100.00
22580;BME280;11456;47.030;15.396;2023-06-10T02:21:54;97151.53;;;16.79;100.00
22580;BME280;11456;47.030;15.396;2023-06-10T02:24:21;97151.53;;;16.79;100.00
22580;BME280;11456;47.030;15.396;2023-06-10T02:26:48;97149.81;;;16.72;100.00
22580;BME280;11456;47.030;15.396;2023-06-10T02:29:15;97156.53;;;16.69;100.00
22580;BME280;11456;47.030;15.396;2023-06-10T02:31:41;97151.94;;;16.70;100.00
22580;BME280;11456;47.030;15.396;2023-06-10T02:34:08;97152.75;;;16.70;100.00
22580;BME280;11456;47.030;15.396;2023-06-10T02:36:35;97159.84;;;16.71;100.00
22580;BME280;11456;47.030;15.396;2023-06-10T02:39:02;97158.09;;;16.57;100.00
22580;BME280;11456;47.030;15.396;2023-06-10T02:41:30;97168.41;;;16.34;100.00
22580;BME280;11456;47.030;15.396;2023-06-10T02:43:58;97168.34;;;16.21;100.00
22580;BME280;11456;47.030;15.396;2023-06-10T02:46:24;97166.19;;;16.10;100.00
22580;BME280;11456;47.030;15.396;2023-06-10T02:48:52;97169.84;;;16.23;100.00
22580;BME280;11456;47.030;15.396;2023-06-10T02:51:22;97172.09;;;16.20;100.00
22580;BME280;11456;47.030;15.396;2023-06-10T02:53:55;97174.44;;;16.23;100.00
22580;BME280;11456;47.030;15.396;2023-06-10T02:56:22;97180.41;;;16.12;100.00
22580;BME280;11456;47.030;15.396;2023-06-10T02:58:50;97187.56;;;16.19;100.00
22580;BME280;11456;47.030;15.396;2023-06-10T03:01:19;97184.16;;;16.45;100.00
22580;BME280;11456;47.030;15.396;2023-06-10T03:04:01;97188.84;;;16.58;100.00
22580;BME280;11456;47.030;15.396;2023-06-10T03:06:28;97195.53;;;16.55;100.00
22580;BME280;11456;47.030;15.396;2023-06-10T03:09:05;97200.22;;;16.40;100.00
22580;BME280;11456;47.030;15.396;2023-06-10T03:11:34;97203.63;;;16.49;100.00
22580;BME280;11456;47.030;15.396;2023-06-10T03:14:01;97203.69;;;16.55;100.00
22580;BME280;11456;47.030;15.396;2023-06-10T03:16:29;97214.81;;;16.60;100.00
22580;BME280;11456;47.030;15.396;2023-06-10T03:18:59;97206.28;;;16.63;100.00
22580;BME280;11456;47.030;15.396;2023-06-10T03:21:26;97213.03;;;16.80;100.00
22580;BME280;11456;47.030;15.396;2023-06-10T03:23:55;97205.47;;;16.69;100.00
22580;BME280;11456;47.030;15.396;2023-06-10T03:26:22;97216.16;;;16.77;100.00
22580;BME280;11456;47.030;15.396;2023-06-10T03:28:50;97214.78;;;16.95;100.00
22580;BME280;11456;47.030;15.396;2023-06-10T03:31:17;97207.72;;;17.07;100.00
22580;BME280;11456;47.030;15.396;2023-06-10T03:33:44;97208.53;;;17.01;100.00
22580;BME280;11456;47.030;15.396;2023-06-10T03:36:11;97220.19;;;16.88;100.00
22580;BME280;11456;47.030;15.396;2023-06-10T03:38:38;97221.97;;;17.09;100.00
22580;BME280;11456;47.030;15.396;2023-06-10T03:41:06;97216.97;;;17.19;100.00
22580;BME280;11456;47.030;15.396;2023-06-10T03:43:33;97223.25;;;17.26;100.00
22580;BME280;11456;47.030;15.396;2023-06-10T03:46:00;97229.47;;;17.07;100.00
22580;BME280;11456;47.030;15.396;2023-06-10T03:48:27;97224.56;;;17.43;100.00
22580;BME280;11456;47.030;15.396;2023-06-10T03:50:54;97223.63;;;17.16;100.00
22580;BME280;11456;47.030;15.396;2023-06-10T03:53:21;97219.47;;;17.20;100.00
22580;BME280;11456;47.030;15.396;2023-06-10T03:55:48;97221.22;;;17.54;100.00
22580;BME280;11456;47.030;15.396;2023-06-10T03:58:18;97217.09;;;17.72;100.00
22580;BME280;11456;47.030;15.396;2023-06-10T04:00:44;97228.00;;;17.72;100.00
22580;BME280;11456;47.030;15.396;2023-06-10T04:03:11;97216.06;;;17.79;100.00
22580;BME280;11456;47.030;15.396;2023-06-10T04:05:45;97228.84;;;17.79;100.00
22580;BME280;11456;47.030;15.396;2023-06-10T04:08:12;97228.44;;;17.88;100.00
22580;BME280;11456;47.030;15.396;2023-06-10T04:10:38;97237.44;;;17.82;100.00
22580;BME280;11456;47.030;15.396;2023-06-10T04:13:05;97235.97;;;17.93;100.00
22580;BME280;11456;47.030;15.396;2023-06-10T04:15:38;97233.88;;;18.08;100.00
22580;BME280;11456;47.030;15.396;2023-06-10T04:18:08;97227.38;;;18.16;100.00
22580;BME280;11456;47.030;15.396;2023-06-10T04:20:35;97228.03;;;18.11;100.00
22580;BME280;11456;47.030;15.396;2023-06-10T04:23:02;97231.38;;;18.00;100.00
22580;BME280;11456;47.030;15.396;2023-06-10T04:25:29;97231.38;;;18.13;100.00
22580;BME280;11456;47.030;15.396;2023-06-10T04:27:56;97231.78;;;18.23;100.00
22580;BME280;11456;47.030;15.396;2023-06-10T04:30:24;97231.34;;;18.26;100.00
22580;BME280;11456;47.030;15.396;2023-06-10T04:32:51;97228.84;;;18.31;100.00
22580;BME280;11456;47.030;15.396;2023-06-10T04:35:18;97237.25;;;18.23;100.00
22580;BME280;11456;47.030;15.396;2023-06-10T04:37:46;97222.97;;;18.34;100.00
22580;BME280;11456;47.030;15.396;2023-06-10T04:40:13;97230.97;;;18.10;100.00
22580;BME280;11456;47.030;15.396;2023-06-10T04:42:42;97232.63;;;17.91;100.00
22580;BME280;11456;47.030;15.396;2023-06-10T04:45:09;97234.31;;;17.79;100.00
22580;BME280;11456;47.030;15.396;2023-06-10T04:47:36;97231.59;;;18.05;100.00
22580;BME280;11456;47.030;15.396;2023-06-10T04:50:04;97230.97;;;18.10;100.00
22580;BME280;11456;47.030;15.396;2023-06-10T04:52:31;97224.22;;;18.25;100.00
22580;BME280;11456;47.030;15.396;2023-06-10T04:54:58;97228.63;;;18.26;100.00
22580;BME280;11456;47.030;15.396;2023-06-10T04:57:25;97228.81;;;18.58;100.00
22580;BME280;11456;47.030;15.396;2023-06-10T04:59:52;97232.16;;;18.73;100.00
22580;BME280;11456;47.030;15.396;2023-06-10T05:02:19;97226.66;;;18.86;100.00
22580;BME280;11456;47.030;15.396;2023-06-10T05:04:46;97237.56;;;18.86;100.00
22580;BME280;11456;47.030;15.396;2023-06-10T05:07:12;97248.09;;;18.63;100.00
22580;BME280;11456;47.030;15.396;2023-06-10T05:09:39;97242.19;;;18.86;100.00
22580;BME280;11456;47.030;15.396;2023-06-10T05:12:05;97240.97;;;18.75;100.00
22580;BME280;11456;47.030;15.396;2023-06-10T05:14:32;97243.28;;;18.52;100.00
22580;BME280;11456;47.030;15.396;2023-06-10T05:16:59;97244.59;;;18.56;100.00
22580;BME280;11456;47.030;15.396;2023-06-10T05:19:25;97238.88;;;18.51;100.00
22580;BME280;11456;47.030;15.396;2023-06-10T05:21:53;97248.31;;;18.74;100.00
22580;BME280;11456;47.030;15.396;2023-06-10T05:24:20;97235.22;;;18.96;100.00
22580;BME280;11456;47.030;15.396;2023-06-10T05:26:46;97238.44;;;18.73;100.00
22580;BME280;11456;47.030;15.396;2023-06-10T05:29:14;97242.19;;;18.92;100.00
22580;BME280;11456;47.030;15.396;2023-06-10T05:31:41;97240.41;;;19.17;100.00
22580;BME280;11456;47.030;15.396;2023-06-10T05:34:08;97241.69;;;19.08;100.00
22580;BME280;11456;47.030;15.396;2023-06-10T05:36:35;97241.25;;;19.11;100.00
22580;BME280;11456;47.030;15.396;2023-06-10T05:39:01;97246.13;;;18.96;100.00
22580;BME280;11456;47.030;15.396;2023-06-10T05:41:28;97244.69;;;19.00;100.00
22580;BME280;11456;47.030;15.396;2023-06-10T05:43:54;97245.50;;;19.07;100.00
22580;BME280;11456;47.030;15.396;2023-06-10T05:46:21;97243.00;;;18.99;100.00
22580;BME280;11456;47.030;15.396;2023-06-10T05:48:47;97243.03;;;19.37;100.00
22580;BME280;11456;47.030;15.396;2023-06-10T05:51:14;97247.91;;;19.73;100.00
22580;BME280;11456;47.030;15.396;2023-06-10T05:53:41;97243.59;;;19.90;100.00
22580;BME280;11456;47.030;15.396;2023-06-10T05:56:07;97240.72;;;20.03;100.00
22580;BME280;11456;47.030;15.396;2023-06-10T05:58:34;97238.03;;;20.28;100.00
22580;BME280;11456;47.030;15.396;2023-06-10T06:01:00;97241.59;;;20.29;100.00
22580;BME280;11456;47.030;15.396;2023-06-10T06:03:27;97235.00;;;20.61;98.99
22580;BME280;11456;47.030;15.396;2023-06-10T06:05:55;97240.94;;;21.13;97.73
22580;BME280;11456;47.030;15.396;2023-06-10T06:08:22;97236.53;;;20.94;95.46
22580;BME280;11456;47.030;15.396;2023-06-10T06:10:48;97233.16;;;20.98;96.17
22580;BME280;11456;47.030;15.396;2023-06-10T06:13:15;97243.34;;;20.91;96.30
22580;BME280;11456;47.030;15.396;2023-06-10T06:15:41;97244.78;;;21.12;95.58
22580;BME280;11456;47.030;15.396;2023-06-10T06:18:08;97247.63;;;21.24;90.94
22580;BME280;11456;47.030;15.396;2023-06-10T06:20:35;97240.19;;;20.69;93.77
22580;BME280;11456;47.030;15.396;2023-06-10T06:23:01;97238.56;;;20.62;94.78
22580;BME280;11456;47.030;15.396;2023-06-10T06:25:28;97240.59;;;20.73;96.30
22580;BME280;11456;47.030;15.396;2023-06-10T06:27:54;97241.44;;;20.73;94.63
22580;BME280;11456;47.030;15.396;2023-06-10T06:30:21;97241.28;;;20.87;95.77
22580;BME280;11456;47.030;15.396;2023-06-10T06:32:47;97235.34;;;21.08;93.36
22580;BME280;11456;47.030;15.396;2023-06-10T06:35:14;97243.09;;;21.11;92.28
22580;BME280;11456;47.030;15.396;2023-06-10T06:37:40;97239.91;;;20.96;92.96
22580;BME280;11456;47.030;15.396;2023-06-10T06:40:21;97246.13;;;21.03;91.24
22580;BME280;11456;47.030;15.396;2023-06-10T06:42:48;97237.69;;;21.04;93.32
22580;BME280;11456;47.030;15.396;2023-06-10T06:45:28;97251.91;;;21.13;93.18
22580;BME280;11456;47.030;15.396;2023-06-10T06:47:54;97247.97;;;21.09;91.44
22580;BME280;11456;47.030;15.396;2023-06-10T06:50:22;97249.59;;;21.16;92.11
22580;BME280;11456;47.030;15.396;2023-06-10T06:52:49;97246.88;;;21.46;89.45
22580;BME280;11456;47.030;15.396;2023-06-10T06:55:15;97245.84;;;21.29;90.50
22580;BME280;11456;47.030;15.396;2023-06-10T06:57:42;97239.16;;;21.43;88.41
22580;BME280;11456;47.030;15.396;2023-06-10T07:00:08;97233.94;;;21.53;89.71
22580;BME280;11456;47.030;15.396;2023-06-10T07:02:35;97244.81;;;21.60;90.06
22580;BME280;11456;47.030;15.396;2023-06-10T07:05:02;97240.03;;;21.55;90.35
22580;BME280;11456;47.030;15.396;2023-06-10T07:07:29;97238.72;;;21.58;89.92
22580;BME280;11456;47.030;15.396;2023-06-10T07:09:56;97242.41;;;21.82;89.63
22580;BME280;11456;47.030;15.396;2023-06-10T07:12:22;97250.88;;;21.92;87.48
22580;BME280;11456;47.030;15.396;2023-06-10T07:14:50;97245.34;;;21.69;90.21
22580;BME280;11456;47.030;15.396;2023-06-10T07:17:17;97254.75;;;21.73;87.81
22580;BME280;11456;47.030;15.396;2023-06-10T07:19:45;97242.91;;;21.60;88.13
22580;BME280;11456;47.030;15.396;2023-06-10T07:22:11;97244.59;;;21.07;91.63
22580;BME280;11456;47.030;15.396;2023-06-10T07:24:38;97245.78;;;21.36;90.62
22580;BME280;11456;47.030;15.396;2023-06-10T07:27:05;97241.31;;;21.53;90.95
22580;BME280;11456;47.030;15.396;2023-06-10T07:29:32;97235.97;;;21.88;90.01
22580;BME280;11456;47.030;15.396;2023-06-10T07:31:58;97239.75;;;21.75;89.46
22580;BME280;11456;47.030;15.396;2023-06-10T07:34:25;97235.94;;;21.10;92.28
22580;BME280;11456;47.030;15.396;2023-06-10T07:36:51;97246.56;;;20.81;93.69
22580;BME280;11456;47.030;15.396;2023-06-10T07:39:18;97241.75;;;21.20;93.23
22580;BME280;11456;47.030;15.396;2023-06-10T07:41:44;97239.47;;;21.65;86.97
22580;BME280;11456;47.030;15.396;2023-06-10T07:44:11;97242.84;;;21.49;91.15
22580;BME280;11456;47.030;15.396;2023-06-10T07:46:37;97246.13;;;21.39;90.65
22580;BME280;11456;47.030;15.396;2023-06-10T07:49:04;97249.31;;;21.54;91.06
22580;BME280;11456;47.030;15.396;2023-06-10T07:51:31;97251.06;;;21.12;92.75
22580;BME280;11456;47.030;15.396;2023-06-10T07:53:57;97249.31;;;21.54;90.09
22580;BME280;11456;47.030;15.396;2023-06-10T07:56:24;97254.03;;;21.47;91.76
22580;BME280;11456;47.030;15.396;2023-06-10T07:58:51;97260.16;;;21.31;90.12
22580;BME280;11456;47.030;15.396;2023-06-10T08:01:18;97250.28;;;21.30;90.44
22580;BME280;11456;47.030;15.396;2023-06-10T08:03:45;97252.66;;;21.38;91.67
22580;BME280;11456;47.030;15.396;2023-06-10T08:06:11;97253.22;;;21.47;90.72
22580;BME280;11456;47.030;15.396;2023-06-10T08:08:38;97238.22;;;21.49;88.89
22580;BME280;11456;47.030;15.396;2023-06-10T08:11:13;97250.03;;;21.32;91.33
22580;BME280;11456;47.030;15.396;2023-06-10T08:13:40;97246.44;;;21.49;91.97
22580;BME280;11456;47.030;15.396;2023-06-10T08:16:06;97239.41;;;22.02;89.42
22580;BME280;11456;47.030;15.396;2023-06-10T08:18:33;97242.75;;;21.85;89.95
22580;BME280;11456;47.030;15.396;2023-06-10T08:21:00;97234.91;;;22.42;89.35
22580;BME280;11456;47.030;15.396;2023-06-10T08:23:26;97250.63;;;22.35;87.14
22580;BME280;11456;47.030;15.396;2023-06-10T08:25:53;97249.97;;;22.63;82.08
22580;BME280;11456;47.030;15.396;2023-06-10T08:28:19;97244.25;;;22.53;83.63
22580;BME280;11456;47.030;15.396;2023-06-10T08:30:46;97240.75;;;22.69;82.98
22580;BME280;11456;47.030;15.396;2023-06-10T08:33:13;97243.53;;;22.81;84.50
22580;BME280;11456;47.030;15.396;2023-06-10T08:35:39;97247.81;;;23.00;80.29
22580;BME280;11456;47.030;15.396;2023-06-10T08:38:06;97235.53;;;22.79;80.28
22580;BME280;11456;47.030;15.396;2023-06-10T08:40:33;97237.19;;;22.68;81.72
22580;BME280;11456;47.030;15.396;2023-06-10T08:45:27;97245.25;;;22.28;84.96
22580;BME280;11456;47.030;15.396;2023-06-10T08:47:55;97243.16;;;23.00;81.53
22580;BME280;11456;47.030;15.396;2023-06-10T08:50:23;97238.00;;;23.67;76.07
22580;BME280;11456;47.030;15.396;2023-06-10T08:52:50;97250.00;;;23.38;75.95
22580;BME280;11456;47.030;15.396;2023-06-10T08:58:01;97240.75;;;23.15;77.74
22580;BME280;11456;47.030;15.396;2023-06-10T09:00:30;97246.25;;;22.46;82.67
22580;BME280;11456;47.030;15.396;2023-06-10T09:02:57;97233.78;;;23.25;82.92
22580;BME280;11456;47.030;15.396;2023-06-10T09:05:31;97244.47;;;23.61;76.53
22580;BME280;11456;47.030;15.396;2023-06-10T09:07:59;97241.13;;;23.59;76.05
22580;BME280;11456;47.030;15.396;2023-06-10T09:10:26;97240.44;;;23.52;76.03
22580;BME280;11456;47.030;15.396;2023-06-10T09:12:53;97249.63;;;23.46;76.55
22580;BME280;11456;47.030;15.396;2023-06-10T09:15:20;97241.66;;;23.33;77.17
22580;BME280;11456;47.030;15.396;2023-06-10T09:17:46;97241.31;;;23.69;76.25
22580;BME280;11456;47.030;15.396;2023-06-10T09:20:13;97239.66;;;23.28;76.57
22580;BME280;11456;47.030;15.396;2023-06-10T09:22:41;97238.81;;;23.28;77.11
22580;BME280;11456;47.030;15.396;2023-06-10T09:25:09;97241.97;;;22.96;78.50
22580;BME280;11456;47.030;15.396;2023-06-10T09:27:51;97236.22;;;23.09;77.72
22580;BME280;11456;47.030;15.396;2023-06-10T09:30:27;97235.03;;;23.57;76.19
22580;BME280;11456;47.030;15.396;2023-06-10T09:32:54;97237.19;;;23.43;75.78
22580;BME280;11456;47.030;15.396;2023-06-10T09:35:26;97233.47;;;23.09;78.44
22580;BME280;11456;47.030;15.396;2023-06-10T09:37:53;97229.16;;;23.65;73.97
22580;BME280;11456;47.030;15.396;2023-06-10T09:40:20;97227.16;;;23.61;73.18
22580;BME280;11456;47.030;15.396;2023-06-10T09:42:49;97240.91;;;24.06;71.60
22580;BME280;11456;47.030;15.396;2023-06-10T09:45:21;97227.78;;;24.24;69.97
22580;BME280;11456;47.030;15.396;2023-06-10T09:47:52;97232.75;;;24.11;69.20
22580;BME280;11456;47.030;15.396;2023-06-10T09:50:19;97226.09;;;24.40;68.12
22580;BME280;11456;47.030;15.396;2023-06-10T09:52:46;97224.28;;;24.62;66.45
22580;BME280;11456;47.030;15.396;2023-06-10T09:55:14;97231.25;;;24.20;70.46
22580;BME280;11456;47.030;15.396;2023-06-10T09:57:40;97227.78;;;24.41;68.88
22580;BME280;11456;47.030;15.396;2023-06-10T10:00:08;97222.44;;;24.68;68.18
22580;BME280;11456;47.030;15.396;2023-06-10T10:02:48;97228.91;;;24.12;69.22
22580;BME280;11456;47.030;15.396;2023-06-10T10:05:15;97221.75;;;24.11;69.91
22580;BME280;11456;47.030;15.396;2023-06-10T10:07:43;97217.63;;;24.25;67.43
22580;BME280;11456;47.030;15.396;2023-06-10T10:10:10;97218.44;;;24.25;68.14
22580;BME280;11456;47.030;15.396;2023-06-10T10:12:37;97221.03;;;24.32;68.32
22580;BME280;11456;47.030;15.396;2023-06-10T10:15:08;97225.72;;;25.03;64.72
22580;BME280;11456;47.030;15.396;2023-06-10T10:20:22;97211.13;;;25.03;69.26
22580;BME280;11456;47.030;15.396;2023-06-10T10:22:51;97209.13;;;25.64;63.86
22580;BME280;11456;47.030;15.396;2023-06-10T10:25:23;97208.41;;;26.00;65.25
22580;BME280;11456;47.030;15.396;2023-06-10T10:27:56;97206.66;;;25.89;61.61
22580;BME280;11456;47.030;15.396;2023-06-10T10:30:25;97212.22;;;25.45;65.99
22580;BME280;11456;47.030;15.396;2023-06-10T10:32:59;97205.41;;;25.31;61.32
22580;BME280;11456;47.030;15.396;2023-06-10T10:35:28;97194.09;;;25.28;64.65
22580;BME280;11456;47.030;15.396;2023-06-10T10:37:55;97199.41;;;25.34;61.13
22580;BME280;11456;47.030;15.396;2023-06-10T10:40:22;97199.00;;;25.47;62.03
22580;BME280;11456;47.030;15.396;2023-06-10T10:42:49;97201.56;;;25.32;64.87
22580;BME280;11456;47.030;15.396;2023-06-10T10:45:16;97194.13;;;25.33;60.30
22580;BME280;11456;47.030;15.396;2023-06-10T10:47:43;97191.25;;;25.23;59.98
22580;BME280;11456;47.030;15.396;2023-06-10T10:50:17;97189.16;;;25.08;63.32
22580;BME280;11456;47.030;15.396;2023-06-10T10:55:18;97188.56;;;25.28;60.77
22580;BME280;11456;47.030;15.396;2023-06-10T10:57:44;97180.81;;;25.03;62.55
22580;BME280;11456;47.030;15.396;2023-06-10T11:00:11;97181.88;;;25.24;61.90
22580;BME280;11456;47.030;15.396;2023-06-10T11:02:42;97175.00;;;25.70;62.78
22580;BME280;11456;47.030;15.396;2023-06-10T11:05:13;97182.09;;;26.19;57.08
22580;BME280;11456;47.030;15.396;2023-06-10T11:07:41;97180.03;;;25.29;59.76
22580;BME280;11456;47.030;15.396;2023-06-10T11:10:17;97181.22;;;25.87;62.42
22580;BME280;11456;47.030;15.396;2023-06-10T11:12:54;97180.56;;;25.75;58.64
22580;BME280;11456;47.030;15.396;2023-06-10T11:15:27;97173.03;;;25.92;58.92
22580;BME280;11456;47.030;15.396;2023-06-10T11:25:51;97158.66;;;27.68;51.56
22580;BME280;11456;47.030;15.396;2023-06-10T11:28:18;97158.47;;;27.18;50.03
22580;BME280;11456;47.030;15.396;2023-06-10T11:30:46;97153.19;;;26.64;53.37
22580;BME280;11456;47.030;15.396;2023-06-10T11:33:16;97155.63;;;27.65;51.86
22580;BME280;11456;47.030;15.396;2023-06-10T11:35:43;97140.97;;;28.76;48.76
22580;BME280;11456;47.030;15.396;2023-06-10T11:38:10;97142.53;;;27.50;50.57
22580;BME280;11456;47.030;15.396;2023-06-10T11:40:36;97150.94;;;27.80;50.87
22580;BME280;11456;47.030;15.396;2023-06-10T11:43:03;97140.69;;;28.62;51.33
22580;BME280;11456;47.030;15.396;2023-06-10T11:45:30;97141.00;;;27.95;50.78
22580;BME280;11456;47.030;15.396;2023-06-10T11:47:57;97133.22;;;27.86;51.19
22580;BME280;11456;47.030;15.396;2023-06-10T11:50:28;97128.38;;;27.26;51.49
22580;BME280;11456;47.030;15.396;2023-06-10T11:52:55;97128.69;;;26.83;52.56
22580;BME280;11456;47.030;15.396;2023-06-10T11:55:22;97127.28;;;26.75;54.40
22580;BME280;11456;47.030;15.396;2023-06-10T11:57:48;97131.00;;;27.58;50.65
22580;BME280;11456;47.030;15.396;2023-06-10T12:00:23;97126.91;;;27.03;53.85
22580;BME280;11456;47.030;15.396;2023-06-10T12:02:55;97124.31;;;27.54;54.45
22580;BME280;11456;47.030;15.396;2023-06-10T12:05:24;97127.78;;;26.62;52.75
22580;BME280;11456;47.030;15.396;2023-06-10T12:08:07;97112.47;;;26.91;52.52
22580;BME280;11456;47.030;15.396;2023-06-10T12:10:38;97112.59;;;26.69;51.36
22580;BME280;11456;47.030;15.396;2023-06-10T12:13:05;97110.28;;;26.14;55.15
22580;BME280;11456;47.030;15.396;2023-06-10T12:15:31;97111.88;;;27.72;49.88
22580;BME280;11456;47.030;15.396;2023-06-10T12:17:58;97106.16;;;28.14;47.08
22580;BME280;11456;47.030;15.396;2023-06-10T12:20:30;97097.81;;;27.88;47.15
22580;BME280;11456;47.030;15.396;2023-06-10T12:22:59;97094.50;;;27.71;47.25
22580;BME280;11456;47.030;15.396;2023-06-10T12:25:26;97098.06;;;29.37;45.32
22580;BME280;11456;47.030;15.396;2023-06-10T12:27:54;97098.47;;;29.05;42.16
22580;BME280;11456;47.030;15.396;2023-06-10T12:30:25;97100.56;;;29.29;41.18
22580;BME280;11456;47.030;15.396;2023-06-10T12:32:52;97104.38;;;28.74;43.16
22580;BME280;11456;47.030;15.396;2023-06-10T12:35:20;97101.84;;;29.57;42.95
22580;BME280;11456;47.030;15.396;2023-06-10T12:37:58;97100.94;;;30.05;40.58
22580;BME280;11456;47.030;15.396;2023-06-10T12:40:29;97100.94;;;29.12;42.03
22580;BME280;11456;47.030;15.396;2023-06-10T12:42:57;97101.78;;;30.06;41.38
22580;BME280;11456;47.030;15.396;2023-06-10T12:45:28;97091.91;;;29.51;42.02
22580;BME280;11456;47.030;15.396;2023-06-10T12:48:06;97102.47;;;29.43;42.19
22580;BME280;11456;47.030;15.396;2023-06-10T12:50:37;97087.59;;;29.14;43.69
22580;BME280;11456;47.030;15.396;2023-06-10T12:53:04;97084.94;;;28.99;44.57
22580;BME280;11456;47.030;15.396;2023-06-10T12:55:31;97077.75;;;28.93;44.17
22580;BME280;11456;47.030;15.396;2023-06-10T12:57:58;97081.16;;;28.59;46.03
22580;BME280;11456;47.030;15.396;2023-06-10T13:00:26;97089.97;;;28.82;47.51
22580;BME280;11456;47.030;15.396;2023-06-10T13:03:04;97077.13;;;29.01;45.32
22580;BME280;11456;47.030;15.396;2023-06-10T13:05:37;97081.50;;;28.22;45.65
22580;BME280;11456;47.030;15.396;2023-06-10T13:08:05;97082.31;;;27.82;50.11
22580;BME280;11456;47.030;15.396;2023-06-10T13:10:33;97088.38;;;27.69;52.29
22580;BME280;11456;47.030;15.396;2023-06-10T13:13:01;97086.09;;;27.41;56.08
22580;BME280;11456;47.030;15.396;2023-06-10T13:15:28;97084.25;;;27.97;55.12